sensor_id;sensor_type;location;lat;lon;timestamp;P1;durP1;ratioP1;P2;durP2;ratioP2
22673;SDS011;11504;43.334;21.918;2023-08-30T00:04:28;11.0;;;10.0;;
22673;SDS011;11504;43.334;21.918;2023-08-30T00:09:05;11.0;;;10.0;;
22673;SDS011;11504;43.334;21.918;2023-08-30T00:13:41;12.0;;;10.0;;
22673;SDS011;11504;43.334;21.918;2023-08-30T00:18:18;12.0;;;10.0;;
22673;SDS011;11504;43.334;21.918;2023-08-30T00:22:56;12.0;;;10.0;;
22673;SDS011;11504;43.334;21.918;2023-08-30T00:27:32;12.0;;;11.0;;
22673;SDS011;11504;43.334;21.918;2023-08-30T00:32:09;12.0;;;11.0;;
22673;SDS011;11504;43.334;21.918;2023-08-30T00:36:46;12.0;;;10.0;;
22673;SDS011;11504;43.334;21.918;2023-08-30T00:41:23;12.0;;;10.0;;
22673;SDS011;11504;43.334;21.918;2023-08-30T00:46:00;11.0;;;9.0;;
22673;SDS011;11504;43.334;21.918;2023-08-30T00:50:38;11.0;;;9.0;;
22673;SDS011;11504;43.334;21.918;2023-08-30T00:55:18;11.0;;;10.0;;
22673;SDS011;11504;43.334;21.918;2023-08-30T00:59:55;11.0;;;10.0;;
22673;SDS011;11504;43.334;21.918;2023-08-30T01:04:34;11.0;;;10.0;;
22673;SDS011;11504;43.334;21.918;2023-08-30T01:09:11;11.0;;;10.0;;
22673;SDS011;11504;43.334;21.918;2023-08-30T01:13:50;10.0;;;10.0;;
22673;SDS011;11504;43.334;21.918;2023-08-30T01:18:45;10.0;;;10.0;;
22673;SDS011;11504;43.334;21.918;2023-08-30T01:23:35;10.0;;;10.0;;
22673;SDS011;11504;43.334;21.918;2023-08-30T01:28:35;10.0;;;10.0;;
22673;SDS011;11504;43.334;21.918;2023-08-30T01:33:15;10.0;;;10.0;;
22673;SDS011;11504;43.334;21.918;2023-08-30T01:37:55;10.0;;;10.0;;
22673;SDS011;11504;43.334;21.918;2023-08-30T01:42:36;10.0;;;10.0;;
22673;SDS011;11504;43.334;21.918;2023-08-30T01:47:21;11.0;;;11.0;;
22673;SDS011;11504;43.334;21.918;2023-08-30T01:52:06;11.0;;;11.0;;
22673;SDS011;11504;43.334;21.918;2023-08-30T01:56:50;12.0;;;11.0;;
22673;SDS011;11504;43.334;21.918;2023-08-30T02:01:28;12.0;;;11.0;;
22673;SDS011;11504;43.334;21.918;2023-08-30T02:06:06;12.0;;;11.0;;
22673;SDS011;11504;43.334;21.918;2023-08-30T02:11:12;12.0;;;11.0;;
22673;SDS011;11504;43.334;21.918;2023-08-30T02:16:10;12.0;;;10.0;;
22673;SDS011;11504;43.334;21.918;2023-08-30T02:20:56;12.0;;;10.0;;
22673;SDS011;11504;43.334;21.918;2023-08-30T02:25:33;11.0;;;10.0;;
22673;SDS011;11504;43.334;21.918;2023-08-30T02:30:10;11.0;;;10.0;;
22673;SDS011;11504;43.334;21.918;2023-08-30T02:34:48;10.0;;;10.0;;
22673;SDS011;11504;43.334;21.918;2023-08-30T02:39:28;10.0;;;10.0;;
22673;SDS011;11504;43.334;21.918;2023-08-30T02:44:05;10.0;;;10.0;;
22673;SDS011;11504;43.334;21.918;2023-08-30T02:48:47;10.0;;;10.0;;
22673;SDS011;11504;43.334;21.918;2023-08-30T02:53:23;10.0;;;10.0;;
22673;SDS011;11504;43.334;21.918;2023-08-30T02:58:00;10.0;;;10.0;;
22673;SDS011;11504;43.334;21.918;2023-08-30T03:02:37;10.0;;;10.0;;
22673;SDS011;11504;43.334;21.918;2023-08-30T03:07:14;10.0;;;9.0;;
22673;SDS011;11504;43.334;21.918;2023-08-30T03:11:51;10.0;;;9.0;;
22673;SDS011;11504;43.334;21.918;2023-08-30T03:16:27;10.0;;;10.0;;
22673;SDS011;11504;43.334;21.918;2023-08-30T03:21:04;10.0;;;10.0;;
22673;SDS011;11504;43.334;21.918;2023-08-30T03:25:42;10.0;;;10.0;;
22673;SDS011;11504;43.334;21.918;2023-08-30T03:30:19;10.0;;;10.0;;
22673;SDS011;11504;43.334;21.918;2023-08-30T03:34:56;10.0;;;10.0;;
22673;SDS011;11504;43.334;21.918;2023-08-30T03:39:33;10.0;;;10.0;;
22673;SDS011;11504;43.334;21.918;2023-08-30T03:44:10;9.0;;;9.0;;
22673;SDS011;11504;43.334;21.918;2023-08-30T03:48:47;9.0;;;9.0;;
22673;SDS011;11504;43.334;21.918;2023-08-30T03:53:24;10.0;;;10.0;;
22673;SDS011;11504;43.334;21.918;2023-08-30T03:58:01;10.0;;;10.0;;
22673;SDS011;11504;43.334;21.918;2023-08-30T04:02:39;10.0;;;10.0;;
22673;SDS011;11504;43.334;21.918;2023-08-30T04:07:15;12.0;;;10.0;;
22673;SDS011;11504;43.334;21.918;2023-08-30T04:11:52;12.0;;;10.0;;
22673;SDS011;11504;43.334;21.918;2023-08-30T04:16:28;12.0;;;10.0;;
22673;SDS011;11504;43.334;21.918;2023-08-30T04:21:05;12.0;;;10.0;;
22673;SDS011;11504;43.334;21.918;2023-08-30T04:25:43;11.0;;;9.0;;
22673;SDS011;11504;43.334;21.918;2023-08-30T04:30:21;11.0;;;9.0;;
22673;SDS011;11504;43.334;21.918;2023-08-30T04:34:59;11.0;;;10.0;;
22673;SDS011;11504;43.334;21.918;2023-08-30T04:39:36;11.0;;;10.0;;
22673;SDS011;11504;43.334;21.918;2023-08-30T04:44:12;11.0;;;10.0;;
22673;SDS011;11504;43.334;21.918;2023-08-30T04:48:48;11.0;;;10.0;;
22673;SDS011;11504;43.334;21.918;2023-08-30T04:53:25;12.0;;;9.0;;
22673;SDS011;11504;43.334;21.918;2023-08-30T04:58:01;12.0;;;9.0;;
22673;SDS011;11504;43.334;21.918;2023-08-30T05:02:38;12.0;;;9.0;;
22673;SDS011;11504;43.334;21.918;2023-08-30T05:07:15;12.0;;;8.0;;
22673;SDS011;11504;43.334;21.918;2023-08-30T05:11:51;12.0;;;8.0;;
22673;SDS011;11504;43.334;21.918;2023-08-30T05:16:29;12.0;;;8.0;;
22673;SDS011;11504;43.334;21.918;2023-08-30T05:21:05;12.0;;;8.0;;
22673;SDS011;11504;43.334;21.918;2023-08-30T05:25:41;11.0;;;9.0;;
22673;SDS011;11504;43.334;21.918;2023-08-30T05:30:18;11.0;;;9.0;;
22673;SDS011;11504;43.334;21.918;2023-08-30T05:34:54;10.0;;;8.0;;
22673;SDS011;11504;43.334;21.918;2023-08-30T05:39:31;10.0;;;8.0;;
22673;SDS011;11504;43.334;21.918;2023-08-30T05:44:09;8.0;;;8.0;;
22673;SDS011;11504;43.334;21.918;2023-08-30T05:48:46;8.0;;;8.0;;
22673;SDS011;11504;43.334;21.918;2023-08-30T05:53:23;8.0;;;8.0;;
22673;SDS011;11504;43.334;21.918;2023-08-30T05:58:00;8.0;;;8.0;;
22673;SDS011;11504;43.334;21.918;2023-08-30T06:02:37;8.0;;;8.0;;
22673;SDS011;11504;43.334;21.918;2023-08-30T06:07:13;8.0;;;8.0;;
22673;SDS011;11504;43.334;21.918;2023-08-30T06:11:50;8.0;;;8.0;;
22673;SDS011;11504;43.334;21.918;2023-08-30T06:16:26;8.0;;;8.0;;
22673;SDS011;11504;43.334;21.918;2023-08-30T06:21:03;8.0;;;8.0;;
22673;SDS011;11504;43.334;21.918;2023-08-30T06:25:40;9.0;;;9.0;;
22673;SDS011;11504;43.334;21.918;2023-08-30T06:30:17;9.0;;;9.0;;
22673;SDS011;11504;43.334;21.918;2023-08-30T06:34:54;9.0;;;9.0;;
22673;SDS011;11504;43.334;21.918;2023-08-30T06:39:33;9.0;;;9.0;;
22673;SDS011;11504;43.334;21.918;2023-08-30T06:44:11;9.0;;;9.0;;
22673;SDS011;11504;43.334;21.918;2023-08-30T06:48:48;9.0;;;9.0;;
22673;SDS011;11504;43.334;21.918;2023-08-30T06:53:24;8.0;;;8.0;;
22673;SDS011;11504;43.334;21.918;2023-08-30T06:58:03;8.0;;;8.0;;
22673;SDS011;11504;43.334;21.918;2023-08-30T07:02:41;8.0;;;8.0;;
22673;SDS011;11504;43.334;21.918;2023-08-30T07:07:18;8.0;;;7.0;;
22673;SDS011;11504;43.334;21.918;2023-08-30T07:11:54;8.0;;;7.0;;
22673;SDS011;11504;43.334;21.918;2023-08-30T07:16:31;8.0;;;7.0;;
22673;SDS011;11504;43.334;21.918;2023-08-30T07:21:08;8.0;;;7.0;;
22673;SDS011;11504;43.334;21.918;2023-08-30T07:25:44;9.0;;;7.0;;
22673;SDS011;11504;43.334;21.918;2023-08-30T07:30:21;9.0;;;7.0;;
22673;SDS011;11504;43.334;21.918;2023-08-30T07:34:58;8.0;;;7.0;;
22673;SDS011;11504;43.334;21.918;2023-08-30T07:39:35;8.0;;;7.0;;
22673;SDS011;11504;43.334;21.918;2023-08-30T07:44:11;8.0;;;7.0;;
22673;SDS011;11504;43.334;21.918;2023-08-30T07:48:48;8.0;;;7.0;;
22673;SDS011;11504;43.334;21.918;2023-08-30T07:53:25;8.0;;;7.0;;
22673;SDS011;11504;43.334;21.918;2023-08-30T07:58:01;8.0;;;7.0;;
22673;SDS011;11504;43.334;21.918;2023-08-30T08:02:39;8.0;;;7.0;;
22673;SDS011;11504;43.334;21.918;2023-08-30T08:07:16;8.0;;;7.0;;
22673;SDS011;11504;43.334;21.918;2023-08-30T08:11:52;8.0;;;7.0;;
22673;SDS011;11504;43.334;21.918;2023-08-30T08:16:30;8.0;;;7.0;;
22673;SDS011;11504;43.334;21.918;2023-08-30T08:21:06;8.0;;;7.0;;
22673;SDS011;11504;43.334;21.918;2023-08-30T08:25:43;8.0;;;7.0;;
22673;SDS011;11504;43.334;21.918;2023-08-30T08:30:20;8.0;;;7.0;;
22673;SDS011;11504;43.334;21.918;2023-08-30T08:34:57;8.0;;;6.0;;
22673;SDS011;11504;43.334;21.918;2023-08-30T08:39:34;8.0;;;6.0;;
22673;SDS011;11504;43.334;21.918;2023-08-30T08:44:11;8.0;;;6.0;;
22673;SDS011;11504;43.334;21.918;2023-08-30T08:48:50;8.0;;;6.0;;
22673;SDS011;11504;43.334;21.918;2023-08-30T08:53:42;7.0;;;6.0;;
22673;SDS011;11504;43.334;21.918;2023-08-30T08:58:20;7.0;;;6.0;;
22673;SDS011;11504;43.334;21.918;2023-08-30T09:02:57;7.0;;;6.0;;
22673;SDS011;11504;43.334;21.918;2023-08-30T09:07:37;6.0;;;5.0;;
22673;SDS011;11504;43.334;21.918;2023-08-30T09:12:16;6.0;;;5.0;;
22673;SDS011;11504;43.334;21.918;2023-08-30T09:16:54;6.0;;;5.0;;
22673;SDS011;11504;43.334;21.918;2023-08-30T09:21:34;6.0;;;5.0;;
22673;SDS011;11504;43.334;21.918;2023-08-30T09:26:11;6.0;;;5.0;;
22673;SDS011;11504;43.334;21.918;2023-08-30T09:30:49;6.0;;;5.0;;
22673;SDS011;11504;43.334;21.918;2023-08-30T09:35:26;6.0;;;6.0;;
22673;SDS011;11504;43.334;21.918;2023-08-30T09:40:03;6.0;;;6.0;;
22673;SDS011;11504;43.334;21.918;2023-08-30T09:44:44;6.0;;;6.0;;
22673;SDS011;11504;43.334;21.918;2023-08-30T09:49:22;6.0;;;6.0;;
22673;SDS011;11504;43.334;21.918;2023-08-30T09:54:03;6.0;;;6.0;;
22673;SDS011;11504;43.334;21.918;2023-08-30T09:58:53;6.0;;;6.0;;
22673;SDS011;11504;43.334;21.918;2023-08-30T10:03:38;6.0;;;5.0;;
22673;SDS011;11504;43.334;21.918;2023-08-30T10:08:18;6.0;;;5.0;;
22673;SDS011;11504;43.334;21.918;2023-08-30T10:13:04;6.0;;;5.0;;
22673;SDS011;11504;43.334;21.918;2023-08-30T10:17:44;6.0;;;5.0;;
22673;SDS011;11504;43.334;21.918;2023-08-30T10:22:34;6.0;;;5.0;;
22673;SDS011;11504;43.334;21.918;2023-08-30T10:27:21;7.0;;;5.0;;
22673;SDS011;11504;43.334;21.918;2023-08-30T10:32:05;7.0;;;5.0;;
22673;SDS011;11504;43.334;21.918;2023-08-30T10:36:43;7.0;;;6.0;;
22673;SDS011;11504;43.334;21.918;2023-08-30T10:41:31;7.0;;;6.0;;
22673;SDS011;11504;43.334;21.918;2023-08-30T10:46:07;7.0;;;6.0;;
22673;SDS011;11504;43.334;21.918;2023-08-30T10:50:44;7.0;;;6.0;;
22673;SDS011;11504;43.334;21.918;2023-08-30T10:55:21;8.0;;;6.0;;
22673;SDS011;11504;43.334;21.918;2023-08-30T11:00:03;8.0;;;6.0;;
22673;SDS011;11504;43.334;21.918;2023-08-30T11:04:54;8.0;;;7.0;;
22673;SDS011;11504;43.334;21.918;2023-08-30T11:09:36;8.0;;;7.0;;
22673;SDS011;11504;43.334;21.918;2023-08-30T11:14:16;8.0;;;7.0;;
22673;SDS011;11504;43.334;21.918;2023-08-30T11:18:55;8.0;;;7.0;;
22673;SDS011;11504;43.334;21.918;2023-08-30T11:23:31;8.0;;;7.0;;
22673;SDS011;11504;43.334;21.918;2023-08-30T11:28:09;8.0;;;7.0;;
22673;SDS011;11504;43.334;21.918;2023-08-30T11:32:46;8.0;;;7.0;;
22673;SDS011;11504;43.334;21.918;2023-08-30T11:37:23;7.0;;;6.0;;
22673;SDS011;11504;43.334;21.918;2023-08-30T11:42:04;7.0;;;6.0;;
22673;SDS011;11504;43.334;21.918;2023-08-30T11:46:43;6.0;;;5.0;;
22673;SDS011;11504;43.334;21.918;2023-08-30T11:51:19;6.0;;;5.0;;
22673;SDS011;11504;43.334;21.918;2023-08-30T11:55:58;6.0;;;6.0;;
22673;SDS011;11504;43.334;21.918;2023-08-30T12:00:34;6.0;;;6.0;;
22673;SDS011;11504;43.334;21.918;2023-08-30T12:05:11;7.0;;;6.0;;
22673;SDS011;11504;43.334;21.918;2023-08-30T12:09:50;7.0;;;6.0;;
22673;SDS011;11504;43.334;21.918;2023-08-30T12:14:39;6.0;;;6.0;;
22673;SDS011;11504;43.334;21.918;2023-08-30T12:19:15;6.0;;;6.0;;
22673;SDS011;11504;43.334;21.918;2023-08-30T12:23:59;6.0;;;5.0;;
22673;SDS011;11504;43.334;21.918;2023-08-30T12:28:37;6.0;;;5.0;;
22673;SDS011;11504;43.334;21.918;2023-08-30T12:33:18;6.0;;;5.0;;
22673;SDS011;11504;43.334;21.918;2023-08-30T12:37:55;6.0;;;5.0;;
22673;SDS011;11504;43.334;21.918;2023-08-30T12:42:32;6.0;;;5.0;;
22673;SDS011;11504;43.334;21.918;2023-08-30T12:47:09;6.0;;;5.0;;
22673;SDS011;11504;43.334;21.918;2023-08-30T12:51:46;6.0;;;5.0;;
22673;SDS011;11504;43.334;21.918;2023-08-30T12:56:23;6.0;;;4.0;;
22673;SDS011;11504;43.334;21.918;2023-08-30T13:00:59;6.0;;;4.0;;
22673;SDS011;11504;43.334;21.918;2023-08-30T13:05:36;5.0;;;4.0;;
22673;SDS011;11504;43.334;21.918;2023-08-30T13:10:12;5.0;;;4.0;;
22673;SDS011;11504;43.334;21.918;2023-08-30T13:14:50;6.0;;;4.0;;
22673;SDS011;11504;43.334;21.918;2023-08-30T13:19:26;6.0;;;4.0;;
22673;SDS011;11504;43.334;21.918;2023-08-30T13:24:03;6.0;;;4.0;;
22673;SDS011;11504;43.334;21.918;2023-08-30T13:28:41;6.0;;;4.0;;
22673;SDS011;11504;43.334;21.918;2023-08-30T13:33:17;6.0;;;4.0;;
22673;SDS011;11504;43.334;21.918;2023-08-30T13:37:54;6.0;;;4.0;;
22673;SDS011;11504;43.334;21.918;2023-08-30T13:42:30;6.0;;;4.0;;
22673;SDS011;11504;43.334;21.918;2023-08-30T13:47:07;6.0;;;5.0;;
22673;SDS011;11504;43.334;21.918;2023-08-30T13:51:44;6.0;;;5.0;;
22673;SDS011;11504;43.334;21.918;2023-08-30T13:56:21;7.0;;;5.0;;
22673;SDS011;11504;43.334;21.918;2023-08-30T14:01:00;7.0;;;5.0;;
22673;SDS011;11504;43.334;21.918;2023-08-30T14:05:36;8.0;;;5.0;;
22673;SDS011;11504;43.334;21.918;2023-08-30T14:10:13;8.0;;;5.0;;
22673;SDS011;11504;43.334;21.918;2023-08-30T14:14:50;6.0;;;4.0;;
22673;SDS011;11504;43.334;21.918;2023-08-30T14:19:27;6.0;;;4.0;;
22673;SDS011;11504;43.334;21.918;2023-08-30T14:24:04;5.0;;;4.0;;
22673;SDS011;11504;43.334;21.918;2023-08-30T14:28:43;5.0;;;4.0;;
22673;SDS011;11504;43.334;21.918;2023-08-30T14:33:19;5.0;;;4.0;;
22673;SDS011;11504;43.334;21.918;2023-08-30T14:37:56;5.0;;;4.0;;
22673;SDS011;11504;43.334;21.918;2023-08-30T14:42:32;5.0;;;4.0;;
22673;SDS011;11504;43.334;21.918;2023-08-30T14:47:09;5.0;;;4.0;;
22673;SDS011;11504;43.334;21.918;2023-08-30T14:51:46;5.0;;;4.0;;
22673;SDS011;11504;43.334;21.918;2023-08-30T14:56:22;4.0;;;4.0;;
22673;SDS011;11504;43.334;21.918;2023-08-30T15:00:58;4.0;;;4.0;;
22673;SDS011;11504;43.334;21.918;2023-08-30T15:05:35;4.0;;;3.0;;
22673;SDS011;11504;43.334;21.918;2023-08-30T15:10:12;4.0;;;3.0;;
22673;SDS011;11504;43.334;21.918;2023-08-30T15:14:48;4.0;;;3.0;;
22673;SDS011;11504;43.334;21.918;2023-08-30T15:19:25;4.0;;;3.0;;
22673;SDS011;11504;43.334;21.918;2023-08-30T15:24:02;3.0;;;3.0;;
22673;SDS011;11504;43.334;21.918;2023-08-30T15:28:41;3.0;;;3.0;;
22673;SDS011;11504;43.334;21.918;2023-08-30T15:33:18;3.0;;;3.0;;
22673;SDS011;11504;43.334;21.918;2023-08-30T15:37:55;4.0;;;4.0;;
22673;SDS011;11504;43.334;21.918;2023-08-30T15:42:31;4.0;;;4.0;;
22673;SDS011;11504;43.334;21.918;2023-08-30T15:47:10;5.0;;;4.0;;
22673;SDS011;11504;43.334;21.918;2023-08-30T15:51:46;5.0;;;4.0;;
22673;SDS011;11504;43.334;21.918;2023-08-30T15:56:23;5.0;;;4.0;;
22673;SDS011;11504;43.334;21.918;2023-08-30T16:01:02;5.0;;;4.0;;
22673;SDS011;11504;43.334;21.918;2023-08-30T16:05:40;5.0;;;4.0;;
22673;SDS011;11504;43.334;21.918;2023-08-30T16:10:17;5.0;;;4.0;;
22673;SDS011;11504;43.334;21.918;2023-08-30T16:14:54;5.0;;;4.0;;
22673;SDS011;11504;43.334;21.918;2023-08-30T16:19:30;5.0;;;4.0;;
22673;SDS011;11504;43.334;21.918;2023-08-30T16:24:07;5.0;;;5.0;;
22673;SDS011;11504;43.334;21.918;2023-08-30T16:28:44;5.0;;;5.0;;
22673;SDS011;11504;43.334;21.918;2023-08-30T16:33:21;5.0;;;5.0;;
22673;SDS011;11504;43.334;21.918;2023-08-30T16:37:57;5.0;;;4.0;;
22673;SDS011;11504;43.334;21.918;2023-08-30T16:42:34;5.0;;;4.0;;
22673;SDS011;11504;43.334;21.918;2023-08-30T16:47:11;5.0;;;4.0;;
22673;SDS011;11504;43.334;21.918;2023-08-30T16:51:48;5.0;;;4.0;;
22673;SDS011;11504;43.334;21.918;2023-08-30T16:56:24;6.0;;;4.0;;
22673;SDS011;11504;43.334;21.918;2023-08-30T17:01:05;6.0;;;4.0;;
22673;SDS011;11504;43.334;21.918;2023-08-30T17:05:46;6.0;;;5.0;;
22673;SDS011;11504;43.334;21.918;2023-08-30T17:10:23;6.0;;;5.0;;
22673;SDS011;11504;43.334;21.918;2023-08-30T17:14:59;6.0;;;5.0;;
22673;SDS011;11504;43.334;21.918;2023-08-30T17:19:36;6.0;;;5.0;;
22673;SDS011;11504;43.334;21.918;2023-08-30T17:24:12;6.0;;;5.0;;
22673;SDS011;11504;43.334;21.918;2023-08-30T17:28:48;6.0;;;5.0;;
22673;SDS011;11504;43.334;21.918;2023-08-30T17:33:25;6.0;;;5.0;;
22673;SDS011;11504;43.334;21.918;2023-08-30T17:38:02;6.0;;;5.0;;
22673;SDS011;11504;43.334;21.918;2023-08-30T17:42:39;6.0;;;5.0;;
22673;SDS011;11504;43.334;21.918;2023-08-30T17:47:16;6.0;;;5.0;;
22673;SDS011;11504;43.334;21.918;2023-08-30T17:51:52;6.0;;;5.0;;
22673;SDS011;11504;43.334;21.918;2023-08-30T17:56:29;9.0;;;8.0;;
22673;SDS011;11504;43.334;21.918;2023-08-30T18:01:07;9.0;;;8.0;;
22673;SDS011;11504;43.334;21.918;2023-08-30T18:05:44;12.0;;;11.0;;
22673;SDS011;11504;43.334;21.918;2023-08-30T18:10:21;12.0;;;11.0;;
22673;SDS011;11504;43.334;21.918;2023-08-30T18:14:59;18.0;;;16.0;;
22673;SDS011;11504;43.334;21.918;2023-08-30T18:19:37;18.0;;;16.0;;
22673;SDS011;11504;43.334;21.918;2023-08-30T18:24:14;23.0;;;21.0;;
22673;SDS011;11504;43.334;21.918;2023-08-30T18:28:55;23.0;;;21.0;;
22673;SDS011;11504;43.334;21.918;2023-08-30T18:33:32;23.0;;;21.0;;
22673;SDS011;11504;43.334;21.918;2023-08-30T18:38:08;34.0;;;29.0;;
22673;SDS011;11504;43.334;21.918;2023-08-30T18:42:44;34.0;;;29.0;;
22673;SDS011;11504;43.334;21.918;2023-08-30T18:47:21;44.0;;;37.0;;
22673;SDS011;11504;43.334;21.918;2023-08-30T18:51:57;44.0;;;37.0;;
22673;SDS011;11504;43.334;21.918;2023-08-30T18:56:33;30.0;;;26.0;;
22673;SDS011;11504;43.334;21.918;2023-08-30T19:01:10;30.0;;;26.0;;
22673;SDS011;11504;43.334;21.918;2023-08-30T19:05:49;16.0;;;15.0;;
22673;SDS011;11504;43.334;21.918;2023-08-30T19:10:25;16.0;;;15.0;;
22673;SDS011;11504;43.334;21.918;2023-08-30T19:15:02;16.0;;;14.0;;
22673;SDS011;11504;43.334;21.918;2023-08-30T19:19:44;16.0;;;14.0;;
22673;SDS011;11504;43.334;21.918;2023-08-30T19:24:21;15.0;;;14.0;;
22673;SDS011;11504;43.334;21.918;2023-08-30T19:28:58;15.0;;;14.0;;
22673;SDS011;11504;43.334;21.918;2023-08-30T19:33:34;15.0;;;14.0;;
22673;SDS011;11504;43.334;21.918;2023-08-30T19:38:11;16.0;;;14.0;;
22673;SDS011;11504;43.334;21.918;2023-08-30T19:42:48;16.0;;;14.0;;
22673;SDS011;11504;43.334;21.918;2023-08-30T19:47:25;16.0;;;15.0;;
22673;SDS011;11504;43.334;21.918;2023-08-30T19:52:03;16.0;;;15.0;;
22673;SDS011;11504;43.334;21.918;2023-08-30T19:56:41;17.0;;;16.0;;
22673;SDS011;11504;43.334;21.918;2023-08-30T20:01:17;17.0;;;16.0;;
22673;SDS011;11504;43.334;21.918;2023-08-30T20:05:53;18.0;;;17.0;;
22673;SDS011;11504;43.334;21.918;2023-08-30T20:10:30;18.0;;;17.0;;
22673;SDS011;11504;43.334;21.918;2023-08-30T20:15:06;14.0;;;12.0;;
22673;SDS011;11504;43.334;21.918;2023-08-30T20:19:45;14.0;;;12.0;;
22673;SDS011;11504;43.334;21.918;2023-08-30T20:24:22;10.0;;;7.0;;
22673;SDS011;11504;43.334;21.918;2023-08-30T20:28:58;10.0;;;7.0;;
22673;SDS011;11504;43.334;21.918;2023-08-30T20:33:35;10.0;;;7.0;;
22673;SDS011;11504;43.334;21.918;2023-08-30T20:38:11;19.0;;;16.0;;
22673;SDS011;11504;43.334;21.918;2023-08-30T20:42:48;19.0;;;16.0;;
22673;SDS011;11504;43.334;21.918;2023-08-30T20:47:25;28.0;;;25.0;;
22673;SDS011;11504;43.334;21.918;2023-08-30T20:52:01;28.0;;;25.0;;
22673;SDS011;11504;43.334;21.918;2023-08-30T20:56:40;20.0;;;18.0;;
22673;SDS011;11504;43.334;21.918;2023-08-30T21:01:17;20.0;;;18.0;;
22673;SDS011;11504;43.334;21.918;2023-08-30T21:05:53;12.0;;;10.0;;
22673;SDS011;11504;43.334;21.918;2023-08-30T21:10:30;12.0;;;10.0;;
22673;SDS011;11504;43.334;21.918;2023-08-30T21:15:06;16.0;;;12.0;;
22673;SDS011;11504;43.334;21.918;2023-08-30T21:19:45;16.0;;;12.0;;
22673;SDS011;11504;43.334;21.918;2023-08-30T21:24:21;19.0;;;15.0;;
22673;SDS011;11504;43.334;21.918;2023-08-30T21:28:57;19.0;;;15.0;;
22673;SDS011;11504;43.334;21.918;2023-08-30T21:33:33;19.0;;;15.0;;
22673;SDS011;11504;43.334;21.918;2023-08-30T21:38:10;15.0;;;12.0;;
22673;SDS011;11504;43.334;21.918;2023-08-30T21:42:51;15.0;;;12.0;;
22673;SDS011;11504;43.334;21.918;2023-08-30T21:47:27;11.0;;;10.0;;
22673;SDS011;11504;43.334;21.918;2023-08-30T21:52:04;11.0;;;10.0;;
22673;SDS011;11504;43.334;21.918;2023-08-30T21:56:41;9.0;;;8.0;;
22673;SDS011;11504;43.334;21.918;2023-08-30T22:01:18;9.0;;;8.0;;
22673;SDS011;11504;43.334;21.918;2023-08-30T22:05:58;7.0;;;7.0;;
22673;SDS011;11504;43.334;21.918;2023-08-30T22:10:37;7.0;;;7.0;;
22673;SDS011;11504;43.334;21.918;2023-08-30T22:15:14;15.0;;;14.0;;
22673;SDS011;11504;43.334;21.918;2023-08-30T22:19:52;15.0;;;14.0;;
22673;SDS011;11504;43.334;21.918;2023-08-30T22:24:28;23.0;;;21.0;;
22673;SDS011;11504;43.334;21.918;2023-08-30T22:29:05;23.0;;;21.0;;
22673;SDS011;11504;43.334;21.918;2023-08-30T22:33:43;23.0;;;21.0;;
22673;SDS011;11504;43.334;21.918;2023-08-30T22:38:19;15.0;;;14.0;;
22673;SDS011;11504;43.334;21.918;2023-08-30T22:42:55;15.0;;;14.0;;
22673;SDS011;11504;43.334;21.918;2023-08-30T22:47:32;7.0;;;7.0;;
22673;SDS011;11504;43.334;21.918;2023-08-30T22:52:10;7.0;;;7.0;;
22673;SDS011;11504;43.334;21.918;2023-08-30T22:56:47;6.0;;;6.0;;
22673;SDS011;11504;43.334;21.918;2023-08-30T23:01:24;6.0;;;6.0;;
22673;SDS011;11504;43.334;21.918;2023-08-30T23:06:00;6.0;;;5.0;;
22673;SDS011;11504;43.334;21.918;2023-08-30T23:10:38;6.0;;;5.0;;
22673;SDS011;11504;43.334;21.918;2023-08-30T23:15:18;6.0;;;6.0;;
22673;SDS011;11504;43.334;21.918;2023-08-30T23:19:56;6.0;;;6.0;;
22673;SDS011;11504;43.334;21.918;2023-08-30T23:24:33;6.0;;;6.0;;
22673;SDS011;11504;43.334;21.918;2023-08-30T23:29:09;6.0;;;6.0;;
22673;SDS011;11504;43.334;21.918;2023-08-30T23:33:46;6.0;;;6.0;;
22673;SDS011;11504;43.334;21.918;2023-08-30T23:38:24;6.0;;;6.0;;
22673;SDS011;11504;43.334;21.918;2023-08-30T23:43:00;6.0;;;6.0;;
22673;SDS011;11504;43.334;21.918;2023-08-30T23:47:37;6.0;;;5.0;;
22673;SDS011;11504;43.334;21.918;2023-08-30T23:52:13;6.0;;;5.0;;
22673;SDS011;11504;43.334;21.918;2023-08-30T23:56:49;6.0;;;5.0;;
